sensor_id;sensor_type;location;lat;lon;timestamp;pressure;altitude;pressure_sealevel;temperature
70415;BMP280;57837;52.064;113.478;2022-07-10T13:52:39;92822.16;;;17.84
70415;BMP280;57837;52.064;113.478;2022-07-10T13:55:43;92828.78;;;17.71
70415;BMP280;57837;52.064;113.478;2022-07-10T13:58:48;92832.88;;;17.54
70415;BMP280;57837;52.064;113.478;2022-07-10T14:01:51;92833.66;;;17.36
70415;BMP280;57837;52.064;113.478;2022-07-10T14:04:55;92834.88;;;17.35
70415;BMP280;57837;52.064;113.478;2022-07-10T14:08:00;92838.28;;;17.30
70415;BMP280;57837;52.064;113.478;2022-07-10T14:11:03;92832.19;;;17.21
70415;BMP280;57837;52.064;113.478;2022-07-10T14:14:07;92828.34;;;17.09
70415;BMP280;57837;52.064;113.478;2022-07-10T14:17:11;92829.91;;;16.99
70415;BMP280;57837;52.064;113.478;2022-07-10T14:20:14;92841.31;;;16.83
70415;BMP280;57837;52.064;113.478;2022-07-10T14:23:18;92833.81;;;16.74
70415;BMP280;57837;52.064;113.478;2022-07-10T14:26:22;92837.31;;;16.63
70415;BMP280;57837;52.064;113.478;2022-07-10T14:29:26;92842.22;;;16.48
70415;BMP280;57837;52.064;113.478;2022-07-10T14:32:30;92837.34;;;16.58
70415;BMP280;57837;52.064;113.478;2022-07-10T14:35:34;92833.56;;;16.59
70415;BMP280;57837;52.064;113.478;2022-07-10T14:38:37;92844.44;;;16.63
70415;BMP280;57837;52.064;113.478;2022-07-10T14:41:41;92838.88;;;16.66
70415;BMP280;57837;52.064;113.478;2022-07-10T14:44:45;92833.31;;;16.75
70415;BMP280;57837;52.064;113.478;2022-07-10T14:47:50;92841.00;;;16.68
70415;BMP280;57837;52.064;113.478;2022-07-10T14:50:53;92848.16;;;16.67
70415;BMP280;57837;52.064;113.478;2022-07-10T14:53:57;92852.31;;;16.76
70415;BMP280;57837;52.064;113.478;2022-07-10T14:57:00;92849.16;;;16.83
70415;BMP280;57837;52.064;113.478;2022-07-10T15:00:05;92847.88;;;16.71
70415;BMP280;57837;52.064;113.478;2022-07-10T15:03:08;92848.72;;;16.60
70415;BMP280;57837;52.064;113.478;2022-07-10T15:06:12;92848.84;;;16.68
70415;BMP280;57837;52.064;113.478;2022-07-10T15:09:15;92846.03;;;16.66
70415;BMP280;57837;52.064;113.478;2022-07-10T15:12:19;92843.59;;;16.55
70415;BMP280;57837;52.064;113.478;2022-07-10T15:15:23;92856.97;;;16.46
70415;BMP280;57837;52.064;113.478;2022-07-10T15:18:28;92857.94;;;16.43
70415;BMP280;57837;52.064;113.478;2022-07-10T15:21:32;92864.53;;;16.49
70415;BMP280;57837;52.064;113.478;2022-07-10T15:24:36;92858.75;;;16.56
70415;BMP280;57837;52.064;113.478;2022-07-10T15:27:40;92852.81;;;16.56
70415;BMP280;57837;52.064;113.478;2022-07-10T15:30:45;92858.31;;;16.52
70415;BMP280;57837;52.064;113.478;2022-07-10T15:33:49;92861.66;;;16.53
70415;BMP280;57837;52.064;113.478;2022-07-10T15:36:53;92863.84;;;16.49
70415;BMP280;57837;52.064;113.478;2022-07-10T15:39:56;92865.50;;;16.46
70415;BMP280;57837;52.064;113.478;2022-07-10T15:43:00;92883.44;;;16.37
70415;BMP280;57837;52.064;113.478;2022-07-10T15:46:04;92881.16;;;16.27
70415;BMP280;57837;52.064;113.478;2022-07-10T15:49:09;92886.59;;;16.29
70415;BMP280;57837;52.064;113.478;2022-07-10T15:52:14;92878.50;;;16.33
70415;BMP280;57837;52.064;113.478;2022-07-10T15:55:18;92885.56;;;16.38
70415;BMP280;57837;52.064;113.478;2022-07-10T15:58:22;92899.41;;;16.33
70415;BMP280;57837;52.064;113.478;2022-07-10T16:01:26;92902.94;;;16.36
70415;BMP280;57837;52.064;113.478;2022-07-10T16:04:29;92903.69;;;16.30
70415;BMP280;57837;52.064;113.478;2022-07-10T16:07:33;92903.75;;;16.25
70415;BMP280;57837;52.064;113.478;2022-07-10T16:10:36;92910.69;;;16.17
70415;BMP280;57837;52.064;113.478;2022-07-10T16:13:40;92902.91;;;16.11
70415;BMP280;57837;52.064;113.478;2022-07-10T16:16:44;92901.72;;;16.12
70415;BMP280;57837;52.064;113.478;2022-07-10T16:19:48;92911.03;;;16.08
70415;BMP280;57837;52.064;113.478;2022-07-10T16:22:52;92908.34;;;16.13
70415;BMP280;57837;52.064;113.478;2022-07-10T16:25:56;92906.44;;;16.14
70415;BMP280;57837;52.064;113.478;2022-07-10T16:29:05;92910.00;;;16.16
70415;BMP280;57837;52.064;113.478;2022-07-10T16:32:08;92916.41;;;16.15
70415;BMP280;57837;52.064;113.478;2022-07-10T16:35:12;92907.94;;;16.09
70415;BMP280;57837;52.064;113.478;2022-07-10T16:38:17;92914.78;;;16.12
70415;BMP280;57837;52.064;113.478;2022-07-10T16:41:20;92913.16;;;16.09
70415;BMP280;57837;52.064;113.478;2022-07-10T16:44:24;92912.25;;;16.07
70415;BMP280;57837;52.064;113.478;2022-07-10T16:47:29;92915.91;;;15.93
70415;BMP280;57837;52.064;113.478;2022-07-10T16:50:33;92914.84;;;15.77
70415;BMP280;57837;52.064;113.478;2022-07-10T16:53:37;92919.44;;;15.65
70415;BMP280;57837;52.064;113.478;2022-07-10T16:57:02;92918.84;;;15.48
70415;BMP280;57837;52.064;113.478;2022-07-10T17:00:17;92918.16;;;15.42
70415;BMP280;57837;52.064;113.478;2022-07-10T17:03:21;92925.31;;;15.41
70415;BMP280;57837;52.064;113.478;2022-07-10T17:06:25;92917.75;;;15.32
70415;BMP280;57837;52.064;113.478;2022-07-10T17:09:28;92925.06;;;15.39
70415;BMP280;57837;52.064;113.478;2022-07-10T17:12:33;92918.69;;;15.35
70415;BMP280;57837;52.064;113.478;2022-07-10T17:15:36;92922.47;;;15.34
70415;BMP280;57837;52.064;113.478;2022-07-10T17:18:41;92913.78;;;15.20
70415;BMP280;57837;52.064;113.478;2022-07-10T17:21:45;92904.59;;;15.14
70415;BMP280;57837;52.064;113.478;2022-07-10T17:25:01;92900.81;;;15.09
70415;BMP280;57837;52.064;113.478;2022-07-10T17:28:05;92901.53;;;15.04
70415;BMP280;57837;52.064;113.478;2022-07-10T17:31:09;92889.97;;;14.99
70415;BMP280;57837;52.064;113.478;2022-07-10T17:34:12;92876.25;;;14.93
70415;BMP280;57837;52.064;113.478;2022-07-10T17:37:16;92888.84;;;14.84
70415;BMP280;57837;52.064;113.478;2022-07-10T17:40:20;92899.03;;;14.82
70415;BMP280;57837;52.064;113.478;2022-07-10T17:43:24;92900.97;;;14.76
70415;BMP280;57837;52.064;113.478;2022-07-10T17:46:28;92894.13;;;14.73
70415;BMP280;57837;52.064;113.478;2022-07-10T17:49:34;92902.19;;;14.69
70415;BMP280;57837;52.064;113.478;2022-07-10T17:52:37;92893.34;;;14.89
70415;BMP280;57837;52.064;113.478;2022-07-10T17:55:41;92915.59;;;14.90
70415;BMP280;57837;52.064;113.478;2022-07-10T17:58:44;92916.41;;;14.63
70415;BMP280;57837;52.064;113.478;2022-07-10T18:01:48;92906.94;;;14.60
70415;BMP280;57837;52.064;113.478;2022-07-10T18:04:51;92908.59;;;14.57
70415;BMP280;57837;52.064;113.478;2022-07-10T18:07:55;92916.91;;;14.55
70415;BMP280;57837;52.064;113.478;2022-07-10T18:10:59;92918.31;;;14.68
70415;BMP280;57837;52.064;113.478;2022-07-10T18:14:03;92923.25;;;14.71
70415;BMP280;57837;52.064;113.478;2022-07-10T18:17:07;92922.31;;;14.69
70415;BMP280;57837;52.064;113.478;2022-07-10T18:20:11;92921.13;;;14.64
70415;BMP280;57837;52.064;113.478;2022-07-10T18:23:13;92919.00;;;14.68
70415;BMP280;57837;52.064;113.478;2022-07-10T18:26:18;92932.75;;;14.63
70415;BMP280;57837;52.064;113.478;2022-07-10T18:29:21;92933.00;;;14.60
70415;BMP280;57837;52.064;113.478;2022-07-10T18:32:24;92931.09;;;14.60
70415;BMP280;57837;52.064;113.478;2022-07-10T18:35:47;92930.41;;;14.60
70415;BMP280;57837;52.064;113.478;2022-07-10T18:38:51;92941.31;;;14.47
70415;BMP280;57837;52.064;113.478;2022-07-10T18:41:55;92956.72;;;14.34
70415;BMP280;57837;52.064;113.478;2022-07-10T18:44:59;92949.88;;;14.31
70415;BMP280;57837;52.064;113.478;2022-07-10T18:48:02;92944.66;;;14.25
70415;BMP280;57837;52.064;113.478;2022-07-10T18:51:06;92948.19;;;14.28
70415;BMP280;57837;52.064;113.478;2022-07-10T18:54:16;92951.53;;;14.17
70415;BMP280;57837;52.064;113.478;2022-07-10T18:57:19;92952.72;;;14.16
70415;BMP280;57837;52.064;113.478;2022-07-10T19:00:23;92942.06;;;14.31
70415;BMP280;57837;52.064;113.478;2022-07-10T19:03:27;92940.16;;;14.31
70415;BMP280;57837;52.064;113.478;2022-07-10T19:06:32;92944.66;;;14.31
70415;BMP280;57837;52.064;113.478;2022-07-10T19:09:35;92951.50;;;14.39
70415;BMP280;57837;52.064;113.478;2022-07-10T19:12:39;92939.19;;;14.40
70415;BMP280;57837;52.064;113.478;2022-07-10T19:15:42;92942.25;;;14.44
70415;BMP280;57837;52.064;113.478;2022-07-10T19:18:46;92948.69;;;14.43
70415;BMP280;57837;52.064;113.478;2022-07-10T19:21:51;92943.94;;;14.36
70415;BMP280;57837;52.064;113.478;2022-07-10T19:24:54;92941.81;;;14.29
70415;BMP280;57837;52.064;113.478;2022-07-10T19:27:58;92951.03;;;14.30
70415;BMP280;57837;52.064;113.478;2022-07-10T19:31:06;92950.09;;;14.27
70415;BMP280;57837;52.064;113.478;2022-07-10T19:34:10;92943.94;;;14.30
70415;BMP280;57837;52.064;113.478;2022-07-10T19:37:15;92942.53;;;14.29
70415;BMP280;57837;52.064;113.478;2022-07-10T19:40:19;92952.47;;;14.36
70415;BMP280;57837;52.064;113.478;2022-07-10T19:43:24;92950.34;;;14.29
70415;BMP280;57837;52.064;113.478;2022-07-10T19:46:27;92949.84;;;14.36
70415;BMP280;57837;52.064;113.478;2022-07-10T19:49:32;92952.69;;;14.33
70415;BMP280;57837;52.064;113.478;2022-07-10T19:52:35;92965.25;;;14.34
70415;BMP280;57837;52.064;113.478;2022-07-10T19:55:39;92973.75;;;14.35
70415;BMP280;57837;52.064;113.478;2022-07-10T19:58:43;92964.06;;;14.30
70415;BMP280;57837;52.064;113.478;2022-07-10T20:01:46;92961.25;;;14.11
70415;BMP280;57837;52.064;113.478;2022-07-10T20:04:51;92957.66;;;14.03
70415;BMP280;57837;52.064;113.478;2022-07-10T20:07:55;92965.47;;;14.08
70415;BMP280;57837;52.064;113.478;2022-07-10T20:10:58;92977.31;;;14.04
70415;BMP280;57837;52.064;113.478;2022-07-10T20:14:03;92988.19;;;13.86
70415;BMP280;57837;52.064;113.478;2022-07-10T20:17:06;92991.25;;;13.84
70415;BMP280;57837;52.064;113.478;2022-07-10T20:20:10;92982.06;;;13.89
70415;BMP280;57837;52.064;113.478;2022-07-10T20:23:13;92978.50;;;13.92
70415;BMP280;57837;52.064;113.478;2022-07-10T20:26:17;92971.41;;;13.87
70415;BMP280;57837;52.064;113.478;2022-07-10T20:29:21;92973.53;;;13.83
70415;BMP280;57837;52.064;113.478;2022-07-10T20:32:24;92965.47;;;13.81
70415;BMP280;57837;52.064;113.478;2022-07-10T20:35:27;92965.03;;;13.82
70415;BMP280;57837;52.064;113.478;2022-07-10T20:38:30;92974.94;;;13.95
70415;BMP280;57837;52.064;113.478;2022-07-10T20:41:33;92981.34;;;13.94
70415;BMP280;57837;52.064;113.478;2022-07-10T20:44:36;92984.66;;;13.94
70415;BMP280;57837;52.064;113.478;2022-07-10T20:47:41;92992.72;;;14.13
70415;BMP280;57837;52.064;113.478;2022-07-10T20:50:46;93003.09;;;14.02
70415;BMP280;57837;52.064;113.478;2022-07-10T20:53:50;93003.78;;;13.80
70415;BMP280;57837;52.064;113.478;2022-07-10T20:56:54;93007.34;;;13.83
70415;BMP280;57837;52.064;113.478;2022-07-10T20:59:58;93006.59;;;13.71
70415;BMP280;57837;52.064;113.478;2022-07-10T21:03:01;93009.41;;;13.56
70415;BMP280;57837;52.064;113.478;2022-07-10T21:06:05;93012.00;;;13.51
70415;BMP280;57837;52.064;113.478;2022-07-10T21:09:08;93014.63;;;13.56
70415;BMP280;57837;52.064;113.478;2022-07-10T21:12:13;93010.88;;;13.74
70415;BMP280;57837;52.064;113.478;2022-07-10T21:15:18;93021.31;;;13.91
70415;BMP280;57837;52.064;113.478;2022-07-10T21:18:23;93025.59;;;14.10
70415;BMP280;57837;52.064;113.478;2022-07-10T21:21:28;93027.22;;;14.08
70415;BMP280;57837;52.064;113.478;2022-07-10T21:24:32;93028.88;;;14.00
70415;BMP280;57837;52.064;113.478;2022-07-10T21:27:35;93024.16;;;14.04
70415;BMP280;57837;52.064;113.478;2022-07-10T21:30:38;93024.16;;;14.09
70415;BMP280;57837;52.064;113.478;2022-07-10T21:33:41;93028.66;;;14.20
70415;BMP280;57837;52.064;113.478;2022-07-10T21:36:45;93018.75;;;14.19
70415;BMP280;57837;52.064;113.478;2022-07-10T21:39:49;93028.69;;;14.31
70415;BMP280;57837;52.064;113.478;2022-07-10T21:42:55;93033.19;;;14.36
70415;BMP280;57837;52.064;113.478;2022-07-10T21:45:59;93034.34;;;14.35
70415;BMP280;57837;52.064;113.478;2022-07-10T21:49:02;93036.50;;;14.37
70415;BMP280;57837;52.064;113.478;2022-07-10T21:52:05;93031.75;;;14.30
70415;BMP280;57837;52.064;113.478;2022-07-10T21:55:09;93033.38;;;14.22
70415;BMP280;57837;52.064;113.478;2022-07-10T21:58:13;93027.28;;;14.19
70415;BMP280;57837;52.064;113.478;2022-07-10T22:01:16;93027.03;;;14.17
70415;BMP280;57837;52.064;113.478;2022-07-10T22:04:20;93026.53;;;14.24
70415;BMP280;57837;52.064;113.478;2022-07-10T22:07:24;93018.75;;;14.35
70415;BMP280;57837;52.064;113.478;2022-07-10T22:10:29;93029.16;;;14.41
70415;BMP280;57837;52.064;113.478;2022-07-10T22:13:32;93031.50;;;14.50
70415;BMP280;57837;52.064;113.478;2022-07-10T22:16:36;93036.19;;;14.79
70415;BMP280;57837;52.064;113.478;2022-07-10T22:19:39;93051.69;;;16.22
70415;BMP280;57837;52.064;113.478;2022-07-10T22:22:44;93051.19;;;17.64
70415;BMP280;57837;52.064;113.478;2022-07-10T22:25:48;93035.31;;;18.91
70415;BMP280;57837;52.064;113.478;2022-07-10T22:28:52;93039.22;;;20.41
70415;BMP280;57837;52.064;113.478;2022-07-10T22:31:55;93033.22;;;22.16
70415;BMP280;57837;52.064;113.478;2022-07-10T22:37:48;93032.91;;;25.16
70415;BMP280;57837;52.064;113.478;2022-07-10T22:40:51;93031.28;;;26.41
70415;BMP280;57837;52.064;113.478;2022-07-10T22:43:55;93038.34;;;27.77
70415;BMP280;57837;52.064;113.478;2022-07-10T22:46:59;93035.03;;;29.31
70415;BMP280;57837;52.064;113.478;2022-07-10T22:50:03;93031.50;;;30.48
70415;BMP280;57837;52.064;113.478;2022-07-10T22:53:07;93039.59;;;31.28
70415;BMP280;57837;52.064;113.478;2022-07-10T22:56:11;93033.50;;;32.11
70415;BMP280;57837;52.064;113.478;2022-07-10T22:59:15;93037.53;;;33.17
70415;BMP280;57837;52.064;113.478;2022-07-10T23:02:19;93040.53;;;33.74
70415;BMP280;57837;52.064;113.478;2022-07-10T23:05:23;93039.72;;;34.42
70415;BMP280;57837;52.064;113.478;2022-07-10T23:08:28;93043.44;;;34.90
70415;BMP280;57837;52.064;113.478;2022-07-10T23:11:31;93041.94;;;35.05
70415;BMP280;57837;52.064;113.478;2022-07-10T23:14:41;93034.97;;;35.17
70415;BMP280;57837;52.064;113.478;2022-07-10T23:17:46;93041.81;;;35.20
70415;BMP280;57837;52.064;113.478;2022-07-10T23:20:50;93038.72;;;35.71
70415;BMP280;57837;52.064;113.478;2022-07-10T23:23:54;93029.91;;;36.38
70415;BMP280;57837;52.064;113.478;2022-07-10T23:26:58;93029.31;;;36.39
70415;BMP280;57837;52.064;113.478;2022-07-10T23:30:02;93025.53;;;36.74
70415;BMP280;57837;52.064;113.478;2022-07-10T23:33:07;93020.13;;;37.53
70415;BMP280;57837;52.064;113.478;2022-07-10T23:36:10;93026.66;;;37.44
70415;BMP280;57837;52.064;113.478;2022-07-10T23:39:14;93038.81;;;36.91
70415;BMP280;57837;52.064;113.478;2022-07-10T23:42:17;93014.16;;;37.03
70415;BMP280;57837;52.064;113.478;2022-07-10T23:45:21;93011.00;;;37.13
70415;BMP280;57837;52.064;113.478;2022-07-10T23:48:25;93012.28;;;37.09
70415;BMP280;57837;52.064;113.478;2022-07-10T23:51:48;93018.44;;;36.86
70415;BMP280;57837;52.064;113.478;2022-07-10T23:54:52;93013.00;;;37.12
70415;BMP280;57837;52.064;113.478;2022-07-10T23:57:56;93014.09;;;37.01
